sensor_id;sensor_type;location;lat;lon;timestamp;P1;durP1;ratioP1;P2;durP2;ratioP2
3000;SDS011;1510;51.072;6.678;2022-08-24T00:01:40;9.20;;;3.80;;
3000;SDS011;1510;51.072;6.678;2022-08-24T00:04:08;9.20;;;3.53;;
3000;SDS011;1510;51.072;6.678;2022-08-24T00:06:35;12.30;;;4.60;;
3000;SDS011;1510;51.072;6.678;2022-08-24T00:09:02;7.50;;;3.90;;
3000;SDS011;1510;51.072;6.678;2022-08-24T00:11:29;10.10;;;3.67;;
3000;SDS011;1510;51.072;6.678;2022-08-24T00:13:56;9.60;;;3.93;;
3000;SDS011;1510;51.072;6.678;2022-08-24T00:16:23;8.47;;;3.20;;
3000;SDS011;1510;51.072;6.678;2022-08-24T00:18:53;10.83;;;3.80;;
3000;SDS011;1510;51.072;6.678;2022-08-24T00:21:26;7.23;;;3.20;;
3000;SDS011;1510;51.072;6.678;2022-08-24T00:23:55;12.33;;;3.93;;
3000;SDS011;1510;51.072;6.678;2022-08-24T00:26:24;9.30;;;3.13;;
3000;SDS011;1510;51.072;6.678;2022-08-24T00:28:55;7.03;;;3.30;;
3000;SDS011;1510;51.072;6.678;2022-08-24T00:31:43;6.00;;;3.07;;
3000;SDS011;1510;51.072;6.678;2022-08-24T00:34:12;7.67;;;3.23;;
3000;SDS011;1510;51.072;6.678;2022-08-24T00:39:59;9.30;;;4.60;;
3000;SDS011;1510;51.072;6.678;2022-08-24T00:42:35;7.53;;;3.60;;
3000;SDS011;1510;51.072;6.678;2022-08-24T00:45:06;9.03;;;3.50;;
3000;SDS011;1510;51.072;6.678;2022-08-24T00:47:39;10.57;;;3.77;;
3000;SDS011;1510;51.072;6.678;2022-08-24T00:50:10;13.53;;;3.53;;
3000;SDS011;1510;51.072;6.678;2022-08-24T00:52:42;8.37;;;3.43;;
3000;SDS011;1510;51.072;6.678;2022-08-24T00:55:14;5.47;;;3.03;;
3000;SDS011;1510;51.072;6.678;2022-08-24T00:57:55;11.40;;;3.93;;
3000;SDS011;1510;51.072;6.678;2022-08-24T01:00:25;10.47;;;3.67;;
3000;SDS011;1510;51.072;6.678;2022-08-24T01:02:58;6.80;;;3.80;;
3000;SDS011;1510;51.072;6.678;2022-08-24T01:05:31;6.73;;;3.50;;
3000;SDS011;1510;51.072;6.678;2022-08-24T01:08:01;8.67;;;3.10;;
3000;SDS011;1510;51.072;6.678;2022-08-24T01:10:30;6.10;;;3.30;;
3000;SDS011;1510;51.072;6.678;2022-08-24T01:13:02;7.70;;;4.17;;
3000;SDS011;1510;51.072;6.678;2022-08-24T01:15:32;7.67;;;3.67;;
3000;SDS011;1510;51.072;6.678;2022-08-24T01:18:01;9.80;;;3.40;;
3000;SDS011;1510;51.072;6.678;2022-08-24T01:20:58;7.40;;;3.63;;
3000;SDS011;1510;51.072;6.678;2022-08-24T01:23:48;8.90;;;3.60;;
3000;SDS011;1510;51.072;6.678;2022-08-24T01:26:24;10.10;;;3.77;;
3000;SDS011;1510;51.072;6.678;2022-08-24T01:28:59;10.80;;;3.80;;
3000;SDS011;1510;51.072;6.678;2022-08-24T01:31:33;7.97;;;3.70;;
3000;SDS011;1510;51.072;6.678;2022-08-24T01:34:06;7.40;;;2.80;;
3000;SDS011;1510;51.072;6.678;2022-08-24T01:36:41;14.30;;;4.60;;
3000;SDS011;1510;51.072;6.678;2022-08-24T01:39:15;8.63;;;5.37;;
3000;SDS011;1510;51.072;6.678;2022-08-24T01:41:49;7.37;;;4.70;;
3000;SDS011;1510;51.072;6.678;2022-08-24T01:44:47;11.33;;;5.20;;
3000;SDS011;1510;51.072;6.678;2022-08-24T01:47:16;8.07;;;5.80;;
3000;SDS011;1510;51.072;6.678;2022-08-24T01:49:48;9.17;;;5.73;;
3000;SDS011;1510;51.072;6.678;2022-08-24T01:54:04;15.40;;;6.10;;
3000;SDS011;1510;51.072;6.678;2022-08-24T01:55:30;10.43;;;4.77;;
3000;SDS011;1510;51.072;6.678;2022-08-24T01:58:15;7.50;;;4.13;;
3000;SDS011;1510;51.072;6.678;2022-08-24T02:01:19;11.13;;;5.10;;
3000;SDS011;1510;51.072;6.678;2022-08-24T02:03:49;8.33;;;4.30;;
3000;SDS011;1510;51.072;6.678;2022-08-24T02:06:43;10.90;;;4.50;;
3000;SDS011;1510;51.072;6.678;2022-08-24T02:09:16;5.83;;;3.80;;
3000;SDS011;1510;51.072;6.678;2022-08-24T02:12:31;10.23;;;4.63;;
3000;SDS011;1510;51.072;6.678;2022-08-24T02:15:09;10.87;;;4.40;;
3000;SDS011;1510;51.072;6.678;2022-08-24T02:17:38;8.13;;;3.40;;
3000;SDS011;1510;51.072;6.678;2022-08-24T02:20:07;8.40;;;4.00;;
3000;SDS011;1510;51.072;6.678;2022-08-24T02:22:37;7.83;;;5.40;;
3000;SDS011;1510;51.072;6.678;2022-08-24T02:25:05;7.60;;;5.50;;
3000;SDS011;1510;51.072;6.678;2022-08-24T02:27:37;6.73;;;4.40;;
3000;SDS011;1510;51.072;6.678;2022-08-24T02:30:06;8.40;;;5.83;;
3000;SDS011;1510;51.072;6.678;2022-08-24T02:32:34;6.97;;;4.83;;
3000;SDS011;1510;51.072;6.678;2022-08-24T02:35:04;17.23;;;15.87;;
3000;SDS011;1510;51.072;6.678;2022-08-24T02:37:39;17.93;;;16.50;;
3000;SDS011;1510;51.072;6.678;2022-08-24T02:40:17;15.03;;;13.73;;
3000;SDS011;1510;51.072;6.678;2022-08-24T02:42:50;12.23;;;11.27;;
3000;SDS011;1510;51.072;6.678;2022-08-24T02:45:19;10.33;;;9.43;;
3000;SDS011;1510;51.072;6.678;2022-08-24T02:47:46;10.63;;;9.50;;
3000;SDS011;1510;51.072;6.678;2022-08-24T02:50:13;13.57;;;11.93;;
3000;SDS011;1510;51.072;6.678;2022-08-24T02:52:57;24.00;;;22.67;;
3000;SDS011;1510;51.072;6.678;2022-08-24T02:55:33;31.57;;;29.70;;
3000;SDS011;1510;51.072;6.678;2022-08-24T02:58:22;42.47;;;40.00;;
3000;SDS011;1510;51.072;6.678;2022-08-24T03:01:03;25.43;;;23.53;;
3000;SDS011;1510;51.072;6.678;2022-08-24T03:06:25;20.53;;;19.13;;
3000;SDS011;1510;51.072;6.678;2022-08-24T03:08:55;14.73;;;13.60;;
3000;SDS011;1510;51.072;6.678;2022-08-24T03:11:22;16.87;;;15.80;;
3000;SDS011;1510;51.072;6.678;2022-08-24T03:14:02;18.83;;;17.13;;
3000;SDS011;1510;51.072;6.678;2022-08-24T03:16:30;10.97;;;10.17;;
3000;SDS011;1510;51.072;6.678;2022-08-24T03:18:59;11.80;;;10.77;;
3000;SDS011;1510;51.072;6.678;2022-08-24T03:24:20;12.90;;;11.80;;
3000;SDS011;1510;51.072;6.678;2022-08-24T03:27:00;15.23;;;13.90;;
3000;SDS011;1510;51.072;6.678;2022-08-24T03:29:30;12.50;;;11.60;;
3000;SDS011;1510;51.072;6.678;2022-08-24T03:32:06;16.07;;;14.60;;
3000;SDS011;1510;51.072;6.678;2022-08-24T03:34:47;21.13;;;19.63;;
3000;SDS011;1510;51.072;6.678;2022-08-24T03:37:14;10.33;;;9.33;;
3000;SDS011;1510;51.072;6.678;2022-08-24T03:39:41;10.33;;;9.37;;
3000;SDS011;1510;51.072;6.678;2022-08-24T03:42:22;19.87;;;11.80;;
3000;SDS011;1510;51.072;6.678;2022-08-24T03:44:50;14.53;;;13.17;;
3000;SDS011;1510;51.072;6.678;2022-08-24T03:47:31;22.57;;;21.27;;
3000;SDS011;1510;51.072;6.678;2022-08-24T03:49:58;47.20;;;44.20;;
3000;SDS011;1510;51.072;6.678;2022-08-24T03:52:27;62.83;;;60.13;;
3000;SDS011;1510;51.072;6.678;2022-08-24T03:54:56;98.17;;;94.27;;
3000;SDS011;1510;51.072;6.678;2022-08-24T03:57:24;142.10;;;136.60;;
3000;SDS011;1510;51.072;6.678;2022-08-24T03:59:53;146.57;;;141.10;;
3000;SDS011;1510;51.072;6.678;2022-08-24T04:02:20;129.90;;;123.90;;
3000;SDS011;1510;51.072;6.678;2022-08-24T04:04:46;118.50;;;113.97;;
3000;SDS011;1510;51.072;6.678;2022-08-24T04:07:13;91.10;;;87.70;;
3000;SDS011;1510;51.072;6.678;2022-08-24T04:09:40;47.33;;;44.80;;
3000;SDS011;1510;51.072;6.678;2022-08-24T04:12:07;20.40;;;18.70;;
3000;SDS011;1510;51.072;6.678;2022-08-24T04:17:11;19.27;;;17.73;;
3000;SDS011;1510;51.072;6.678;2022-08-24T04:19:46;14.77;;;13.37;;
3000;SDS011;1510;51.072;6.678;2022-08-24T04:22:22;53.20;;;50.80;;
3000;SDS011;1510;51.072;6.678;2022-08-24T04:24:50;96.00;;;92.17;;
3000;SDS011;1510;51.072;6.678;2022-08-24T04:27:17;86.30;;;82.33;;
3000;SDS011;1510;51.072;6.678;2022-08-24T04:29:56;93.33;;;89.17;;
3000;SDS011;1510;51.072;6.678;2022-08-24T04:32:38;59.03;;;56.63;;
3000;SDS011;1510;51.072;6.678;2022-08-24T04:35:06;93.80;;;89.90;;
3000;SDS011;1510;51.072;6.678;2022-08-24T04:41:25;228.00;;;219.20;;
3000;SDS011;1510;51.072;6.678;2022-08-24T04:44:41;224.33;;;215.73;;
3000;SDS011;1510;51.072;6.678;2022-08-24T04:58:10;194.93;;;187.17;;
3000;SDS011;1510;51.072;6.678;2022-08-24T05:01:15;171.50;;;164.93;;
3000;SDS011;1510;51.072;6.678;2022-08-24T05:04:51;184.30;;;177.40;;
3000;SDS011;1510;51.072;6.678;2022-08-24T05:14:26;141.20;;;135.53;;
3000;SDS011;1510;51.072;6.678;2022-08-24T05:16:58;98.57;;;94.53;;
3000;SDS011;1510;51.072;6.678;2022-08-24T05:19:24;96.70;;;92.47;;
3000;SDS011;1510;51.072;6.678;2022-08-24T05:21:52;57.83;;;54.97;;
3000;SDS011;1510;51.072;6.678;2022-08-24T05:24:19;66.00;;;63.10;;
3000;SDS011;1510;51.072;6.678;2022-08-24T05:26:47;49.23;;;47.13;;
3000;SDS011;1510;51.072;6.678;2022-08-24T05:29:16;16.07;;;14.97;;
3000;SDS011;1510;51.072;6.678;2022-08-24T05:31:43;15.70;;;6.77;;
3000;SDS011;1510;51.072;6.678;2022-08-24T05:34:11;9.27;;;5.17;;
3000;SDS011;1510;51.072;6.678;2022-08-24T05:36:41;16.00;;;5.03;;
3000;SDS011;1510;51.072;6.678;2022-08-24T05:42:15;7.53;;;3.90;;
3000;SDS011;1510;51.072;6.678;2022-08-24T05:45:15;8.83;;;3.70;;
3000;SDS011;1510;51.072;6.678;2022-08-24T05:48:33;10.70;;;4.33;;
3000;SDS011;1510;51.072;6.678;2022-08-24T05:51:24;10.23;;;4.97;;
3000;SDS011;1510;51.072;6.678;2022-08-24T05:54:12;10.30;;;4.27;;
3000;SDS011;1510;51.072;6.678;2022-08-24T05:56:44;10.43;;;4.07;;
3000;SDS011;1510;51.072;6.678;2022-08-24T05:59:13;8.50;;;3.73;;
3000;SDS011;1510;51.072;6.678;2022-08-24T06:01:44;8.43;;;4.33;;
3000;SDS011;1510;51.072;6.678;2022-08-24T06:04:17;7.20;;;4.70;;
3000;SDS011;1510;51.072;6.678;2022-08-24T06:06:48;9.10;;;5.23;;
3000;SDS011;1510;51.072;6.678;2022-08-24T06:09:22;15.00;;;4.60;;
3000;SDS011;1510;51.072;6.678;2022-08-24T06:12:00;8.97;;;5.57;;
3000;SDS011;1510;51.072;6.678;2022-08-24T06:18:36;12.33;;;4.73;;
3000;SDS011;1510;51.072;6.678;2022-08-24T06:21:51;16.80;;;6.47;;
3000;SDS011;1510;51.072;6.678;2022-08-24T06:24:41;8.90;;;6.20;;
3000;SDS011;1510;51.072;6.678;2022-08-24T06:30:58;14.93;;;7.13;;
3000;SDS011;1510;51.072;6.678;2022-08-24T06:33:37;11.40;;;6.20;;
3000;SDS011;1510;51.072;6.678;2022-08-24T06:37:02;13.97;;;6.43;;
3000;SDS011;1510;51.072;6.678;2022-08-24T06:40:07;8.97;;;5.80;;
3000;SDS011;1510;51.072;6.678;2022-08-24T06:42:37;11.90;;;6.90;;
3000;SDS011;1510;51.072;6.678;2022-08-24T06:45:17;12.50;;;5.70;;
3000;SDS011;1510;51.072;6.678;2022-08-24T06:48:07;11.57;;;5.73;;
3000;SDS011;1510;51.072;6.678;2022-08-24T06:50:41;11.13;;;5.93;;
3000;SDS011;1510;51.072;6.678;2022-08-24T06:53:08;9.80;;;6.03;;
3000;SDS011;1510;51.072;6.678;2022-08-24T06:55:45;16.13;;;5.57;;
3000;SDS011;1510;51.072;6.678;2022-08-24T06:58:19;19.97;;;5.80;;
3000;SDS011;1510;51.072;6.678;2022-08-24T07:00:47;14.97;;;6.63;;
3000;SDS011;1510;51.072;6.678;2022-08-24T07:03:16;13.80;;;5.97;;
3000;SDS011;1510;51.072;6.678;2022-08-24T07:05:48;12.20;;;5.20;;
3000;SDS011;1510;51.072;6.678;2022-08-24T07:08:15;11.17;;;5.50;;
3000;SDS011;1510;51.072;6.678;2022-08-24T07:10:42;13.63;;;6.07;;
3000;SDS011;1510;51.072;6.678;2022-08-24T07:13:09;11.80;;;5.33;;
3000;SDS011;1510;51.072;6.678;2022-08-24T07:15:36;10.03;;;5.20;;
3000;SDS011;1510;51.072;6.678;2022-08-24T07:18:03;8.60;;;5.10;;
3000;SDS011;1510;51.072;6.678;2022-08-24T07:20:38;11.70;;;5.80;;
3000;SDS011;1510;51.072;6.678;2022-08-24T07:23:07;13.20;;;5.30;;
3000;SDS011;1510;51.072;6.678;2022-08-24T07:25:34;13.13;;;6.00;;
3000;SDS011;1510;51.072;6.678;2022-08-24T07:28:01;25.17;;;5.93;;
3000;SDS011;1510;51.072;6.678;2022-08-24T07:30:28;12.83;;;5.87;;
3000;SDS011;1510;51.072;6.678;2022-08-24T07:32:56;16.73;;;7.00;;
3000;SDS011;1510;51.072;6.678;2022-08-24T07:35:25;17.03;;;5.77;;
3000;SDS011;1510;51.072;6.678;2022-08-24T07:37:55;18.47;;;5.93;;
3000;SDS011;1510;51.072;6.678;2022-08-24T07:40:22;9.80;;;6.20;;
3000;SDS011;1510;51.072;6.678;2022-08-24T07:42:49;14.57;;;5.40;;
3000;SDS011;1510;51.072;6.678;2022-08-24T07:45:25;10.03;;;6.03;;
3000;SDS011;1510;51.072;6.678;2022-08-24T07:47:54;14.43;;;5.33;;
3000;SDS011;1510;51.072;6.678;2022-08-24T07:50:21;12.20;;;5.23;;
3000;SDS011;1510;51.072;6.678;2022-08-24T07:52:50;15.83;;;5.47;;
3000;SDS011;1510;51.072;6.678;2022-08-24T07:55:18;11.90;;;6.07;;
3000;SDS011;1510;51.072;6.678;2022-08-24T07:57:45;12.67;;;5.13;;
3000;SDS011;1510;51.072;6.678;2022-08-24T08:00:13;15.67;;;5.43;;
3000;SDS011;1510;51.072;6.678;2022-08-24T08:02:46;10.47;;;5.40;;
3000;SDS011;1510;51.072;6.678;2022-08-24T08:05:26;12.77;;;5.20;;
3000;SDS011;1510;51.072;6.678;2022-08-24T08:07:53;9.60;;;4.90;;
3000;SDS011;1510;51.072;6.678;2022-08-24T08:10:21;11.23;;;4.50;;
3000;SDS011;1510;51.072;6.678;2022-08-24T08:12:48;13.50;;;5.60;;
3000;SDS011;1510;51.072;6.678;2022-08-24T08:15:17;13.20;;;5.00;;
3000;SDS011;1510;51.072;6.678;2022-08-24T08:17:52;20.13;;;5.40;;
3000;SDS011;1510;51.072;6.678;2022-08-24T08:20:40;9.90;;;5.00;;
3000;SDS011;1510;51.072;6.678;2022-08-24T08:23:11;14.37;;;5.23;;
3000;SDS011;1510;51.072;6.678;2022-08-24T08:28:40;10.40;;;4.70;;
3000;SDS011;1510;51.072;6.678;2022-08-24T08:31:07;18.80;;;4.30;;
3000;SDS011;1510;51.072;6.678;2022-08-24T08:33:46;11.17;;;5.23;;
3000;SDS011;1510;51.072;6.678;2022-08-24T08:36:23;9.80;;;5.43;;
3000;SDS011;1510;51.072;6.678;2022-08-24T08:38:52;14.43;;;4.03;;
3000;SDS011;1510;51.072;6.678;2022-08-24T08:44:28;9.70;;;4.40;;
3000;SDS011;1510;51.072;6.678;2022-08-24T08:47:10;14.93;;;4.23;;
3000;SDS011;1510;51.072;6.678;2022-08-24T08:49:57;16.73;;;4.57;;
3000;SDS011;1510;51.072;6.678;2022-08-24T08:52:40;8.80;;;3.60;;
3000;SDS011;1510;51.072;6.678;2022-08-24T08:55:41;11.07;;;3.43;;
3000;SDS011;1510;51.072;6.678;2022-08-24T08:58:43;10.80;;;4.50;;
3000;SDS011;1510;51.072;6.678;2022-08-24T09:01:31;8.47;;;4.10;;
3000;SDS011;1510;51.072;6.678;2022-08-24T09:04:35;7.87;;;3.73;;
3000;SDS011;1510;51.072;6.678;2022-08-24T09:10:37;8.00;;;3.70;;
3000;SDS011;1510;51.072;6.678;2022-08-24T09:13:16;7.47;;;3.43;;
3000;SDS011;1510;51.072;6.678;2022-08-24T09:16:13;8.63;;;3.93;;
3000;SDS011;1510;51.072;6.678;2022-08-24T09:19:07;15.83;;;3.47;;
3000;SDS011;1510;51.072;6.678;2022-08-24T09:21:53;14.47;;;4.60;;
3000;SDS011;1510;51.072;6.678;2022-08-24T09:24:43;9.07;;;3.53;;
3000;SDS011;1510;51.072;6.678;2022-08-24T09:27:27;8.90;;;3.30;;
3000;SDS011;1510;51.072;6.678;2022-08-24T09:30:08;6.40;;;3.27;;
3000;SDS011;1510;51.072;6.678;2022-08-24T09:35:54;9.53;;;3.63;;
3000;SDS011;1510;51.072;6.678;2022-08-24T09:41:52;9.53;;;3.33;;
3000;SDS011;1510;51.072;6.678;2022-08-24T09:44:56;12.43;;;4.40;;
3000;SDS011;1510;51.072;6.678;2022-08-24T09:51:11;9.10;;;3.07;;
3000;SDS011;1510;51.072;6.678;2022-08-24T09:54:12;9.67;;;3.20;;
3000;SDS011;1510;51.072;6.678;2022-08-24T09:57:16;9.37;;;3.00;;
3000;SDS011;1510;51.072;6.678;2022-08-24T10:02:45;9.27;;;3.80;;
3000;SDS011;1510;51.072;6.678;2022-08-24T10:05:25;12.00;;;2.93;;
3000;SDS011;1510;51.072;6.678;2022-08-24T10:08:03;13.20;;;3.70;;
3000;SDS011;1510;51.072;6.678;2022-08-24T10:10:49;7.03;;;2.57;;
3000;SDS011;1510;51.072;6.678;2022-08-24T10:13:24;8.13;;;3.47;;
3000;SDS011;1510;51.072;6.678;2022-08-24T10:16:10;8.83;;;3.30;;
3000;SDS011;1510;51.072;6.678;2022-08-24T10:18:49;6.97;;;3.10;;
3000;SDS011;1510;51.072;6.678;2022-08-24T10:21:30;6.77;;;2.90;;
3000;SDS011;1510;51.072;6.678;2022-08-24T10:24:24;8.23;;;3.20;;
3000;SDS011;1510;51.072;6.678;2022-08-24T10:27:07;6.47;;;3.47;;
3000;SDS011;1510;51.072;6.678;2022-08-24T10:32:52;9.60;;;3.47;;
3000;SDS011;1510;51.072;6.678;2022-08-24T10:35:34;10.67;;;3.20;;
3000;SDS011;1510;51.072;6.678;2022-08-24T10:38:24;7.80;;;3.13;;
3000;SDS011;1510;51.072;6.678;2022-08-24T10:41:27;6.77;;;3.37;;
3000;SDS011;1510;51.072;6.678;2022-08-24T10:44:27;9.67;;;3.37;;
3000;SDS011;1510;51.072;6.678;2022-08-24T10:47:16;7.83;;;3.10;;
3000;SDS011;1510;51.072;6.678;2022-08-24T10:56:18;9.60;;;3.57;;
3000;SDS011;1510;51.072;6.678;2022-08-24T10:59:22;8.17;;;3.40;;
3000;SDS011;1510;51.072;6.678;2022-08-24T11:03:03;14.70;;;3.63;;
3000;SDS011;1510;51.072;6.678;2022-08-24T11:05:42;8.17;;;3.33;;
3000;SDS011;1510;51.072;6.678;2022-08-24T11:08:29;9.77;;;3.47;;
3000;SDS011;1510;51.072;6.678;2022-08-24T11:11:05;6.90;;;2.60;;
3000;SDS011;1510;51.072;6.678;2022-08-24T11:13:49;9.17;;;2.80;;
3000;SDS011;1510;51.072;6.678;2022-08-24T11:16:33;5.93;;;2.87;;
3000;SDS011;1510;51.072;6.678;2022-08-24T11:19:09;10.13;;;2.80;;
3000;SDS011;1510;51.072;6.678;2022-08-24T11:21:49;10.33;;;2.90;;
3000;SDS011;1510;51.072;6.678;2022-08-24T11:24:44;7.90;;;2.70;;
3000;SDS011;1510;51.072;6.678;2022-08-24T11:27:30;6.40;;;2.43;;
3000;SDS011;1510;51.072;6.678;2022-08-24T11:30:41;6.63;;;3.10;;
3000;SDS011;1510;51.072;6.678;2022-08-24T11:33:22;8.73;;;2.30;;
3000;SDS011;1510;51.072;6.678;2022-08-24T11:35:51;7.77;;;2.40;;
3000;SDS011;1510;51.072;6.678;2022-08-24T11:38:19;5.37;;;2.10;;
3000;SDS011;1510;51.072;6.678;2022-08-24T11:40:50;4.77;;;2.07;;
3000;SDS011;1510;51.072;6.678;2022-08-24T11:43:23;6.10;;;2.00;;
3000;SDS011;1510;51.072;6.678;2022-08-24T11:46:15;5.80;;;2.60;;
3000;SDS011;1510;51.072;6.678;2022-08-24T11:48:47;6.70;;;2.40;;
3000;SDS011;1510;51.072;6.678;2022-08-24T11:51:26;7.50;;;2.90;;
3000;SDS011;1510;51.072;6.678;2022-08-24T11:54:04;6.57;;;2.97;;
3000;SDS011;1510;51.072;6.678;2022-08-24T11:56:43;6.50;;;2.77;;
3000;SDS011;1510;51.072;6.678;2022-08-24T11:59:20;9.47;;;2.13;;
3000;SDS011;1510;51.072;6.678;2022-08-24T12:01:56;5.90;;;2.17;;
3000;SDS011;1510;51.072;6.678;2022-08-24T12:04:59;6.20;;;2.20;;
3000;SDS011;1510;51.072;6.678;2022-08-24T12:07:41;7.33;;;1.80;;
3000;SDS011;1510;51.072;6.678;2022-08-24T12:10:25;7.03;;;2.67;;
3000;SDS011;1510;51.072;6.678;2022-08-24T12:13:00;7.73;;;2.30;;
3000;SDS011;1510;51.072;6.678;2022-08-24T12:15:35;9.03;;;2.10;;
3000;SDS011;1510;51.072;6.678;2022-08-24T12:18:10;28.20;;;3.47;;
3000;SDS011;1510;51.072;6.678;2022-08-24T12:20:46;7.43;;;1.97;;
3000;SDS011;1510;51.072;6.678;2022-08-24T12:23:15;7.00;;;2.40;;
3000;SDS011;1510;51.072;6.678;2022-08-24T12:25:51;5.60;;;2.20;;
3000;SDS011;1510;51.072;6.678;2022-08-24T12:28:31;6.60;;;1.80;;
3000;SDS011;1510;51.072;6.678;2022-08-24T12:31:05;9.23;;;2.43;;
3000;SDS011;1510;51.072;6.678;2022-08-24T12:33:36;8.00;;;2.00;;
3000;SDS011;1510;51.072;6.678;2022-08-24T12:36:12;7.03;;;1.70;;
3000;SDS011;1510;51.072;6.678;2022-08-24T12:38:44;5.60;;;2.07;;
3000;SDS011;1510;51.072;6.678;2022-08-24T12:41:19;5.00;;;2.00;;
3000;SDS011;1510;51.072;6.678;2022-08-24T12:43:54;9.93;;;2.17;;
3000;SDS011;1510;51.072;6.678;2022-08-24T12:46:26;8.80;;;2.23;;
3000;SDS011;1510;51.072;6.678;2022-08-24T12:48:54;7.33;;;1.90;;
3000;SDS011;1510;51.072;6.678;2022-08-24T12:51:24;5.87;;;2.43;;
3000;SDS011;1510;51.072;6.678;2022-08-24T12:53:58;8.20;;;2.00;;
3000;SDS011;1510;51.072;6.678;2022-08-24T12:56:52;5.87;;;2.43;;
3000;SDS011;1510;51.072;6.678;2022-08-24T12:59:28;8.83;;;2.47;;
3000;SDS011;1510;51.072;6.678;2022-08-24T13:02:01;11.13;;;2.43;;
3000;SDS011;1510;51.072;6.678;2022-08-24T13:04:54;5.53;;;2.10;;
3000;SDS011;1510;51.072;6.678;2022-08-24T13:07:27;5.30;;;1.70;;
3000;SDS011;1510;51.072;6.678;2022-08-24T13:16:06;6.93;;;2.40;;
3000;SDS011;1510;51.072;6.678;2022-08-24T13:33:30;11.57;;;2.43;;
3000;SDS011;1510;51.072;6.678;2022-08-24T13:39:17;4.87;;;1.80;;
3000;SDS011;1510;51.072;6.678;2022-08-24T13:51:46;7.33;;;1.87;;
3000;SDS011;1510;51.072;6.678;2022-08-24T13:54:25;6.53;;;2.20;;
3000;SDS011;1510;51.072;6.678;2022-08-24T13:57:10;9.20;;;2.20;;
3000;SDS011;1510;51.072;6.678;2022-08-24T14:00:00;8.00;;;2.33;;
3000;SDS011;1510;51.072;6.678;2022-08-24T14:02:49;7.17;;;2.30;;
3000;SDS011;1510;51.072;6.678;2022-08-24T14:08:42;5.00;;;2.03;;
3000;SDS011;1510;51.072;6.678;2022-08-24T14:12:03;5.60;;;2.27;;
3000;SDS011;1510;51.072;6.678;2022-08-24T14:14:46;6.27;;;2.53;;
3000;SDS011;1510;51.072;6.678;2022-08-24T14:18:21;7.47;;;2.83;;
3000;SDS011;1510;51.072;6.678;2022-08-24T14:21:48;5.03;;;2.10;;
3000;SDS011;1510;51.072;6.678;2022-08-24T14:24:56;5.57;;;2.40;;
3000;SDS011;1510;51.072;6.678;2022-08-24T14:27:52;7.87;;;2.37;;
3000;SDS011;1510;51.072;6.678;2022-08-24T14:31:18;8.10;;;2.20;;
3000;SDS011;1510;51.072;6.678;2022-08-24T14:34:06;5.80;;;1.97;;
3000;SDS011;1510;51.072;6.678;2022-08-24T14:36:53;8.70;;;2.33;;
3000;SDS011;1510;51.072;6.678;2022-08-24T14:42:52;12.70;;;2.13;;
3000;SDS011;1510;51.072;6.678;2022-08-24T14:45:37;6.30;;;2.27;;
3000;SDS011;1510;51.072;6.678;2022-08-24T14:48:19;4.90;;;1.87;;
3000;SDS011;1510;51.072;6.678;2022-08-24T14:51:32;8.03;;;2.03;;
3000;SDS011;1510;51.072;6.678;2022-08-24T14:54:21;6.90;;;1.93;;
3000;SDS011;1510;51.072;6.678;2022-08-24T14:57:09;7.27;;;4.00;;
3000;SDS011;1510;51.072;6.678;2022-08-24T14:59:50;5.30;;;1.90;;
3000;SDS011;1510;51.072;6.678;2022-08-24T15:02:41;5.53;;;2.07;;
3000;SDS011;1510;51.072;6.678;2022-08-24T15:05:41;6.13;;;1.80;;
3000;SDS011;1510;51.072;6.678;2022-08-24T15:15:12;7.63;;;2.20;;
3000;SDS011;1510;51.072;6.678;2022-08-24T15:21:08;5.50;;;1.80;;
3000;SDS011;1510;51.072;6.678;2022-08-24T15:24:04;6.30;;;1.90;;
3000;SDS011;1510;51.072;6.678;2022-08-24T15:26:57;6.53;;;2.00;;
3000;SDS011;1510;51.072;6.678;2022-08-24T15:29:46;6.67;;;2.23;;
3000;SDS011;1510;51.072;6.678;2022-08-24T15:32:39;8.33;;;2.37;;
3000;SDS011;1510;51.072;6.678;2022-08-24T15:35:21;6.70;;;2.10;;
3000;SDS011;1510;51.072;6.678;2022-08-24T15:44:02;9.13;;;2.27;;
3000;SDS011;1510;51.072;6.678;2022-08-24T15:46:46;10.87;;;2.30;;
3000;SDS011;1510;51.072;6.678;2022-08-24T15:49:23;5.80;;;1.97;;
3000;SDS011;1510;51.072;6.678;2022-08-24T15:52:41;5.90;;;2.10;;
3000;SDS011;1510;51.072;6.678;2022-08-24T15:55:35;10.73;;;2.37;;
3000;SDS011;1510;51.072;6.678;2022-08-24T15:58:19;4.83;;;1.70;;
3000;SDS011;1510;51.072;6.678;2022-08-24T16:01:17;5.00;;;2.00;;
3000;SDS011;1510;51.072;6.678;2022-08-24T16:04:07;5.83;;;1.87;;
3000;SDS011;1510;51.072;6.678;2022-08-24T16:06:49;5.10;;;2.07;;
3000;SDS011;1510;51.072;6.678;2022-08-24T16:09:37;10.23;;;2.50;;
3000;SDS011;1510;51.072;6.678;2022-08-24T16:12:33;6.77;;;2.30;;
3000;SDS011;1510;51.072;6.678;2022-08-24T16:15:13;8.20;;;2.83;;
3000;SDS011;1510;51.072;6.678;2022-08-24T16:17:44;4.63;;;1.97;;
3000;SDS011;1510;51.072;6.678;2022-08-24T16:23:34;7.57;;;2.00;;
3000;SDS011;1510;51.072;6.678;2022-08-24T16:26:20;7.10;;;2.00;;
3000;SDS011;1510;51.072;6.678;2022-08-24T16:32:20;5.30;;;2.13;;
3000;SDS011;1510;51.072;6.678;2022-08-24T16:35:12;10.03;;;2.13;;
3000;SDS011;1510;51.072;6.678;2022-08-24T16:37:55;5.27;;;1.97;;
3000;SDS011;1510;51.072;6.678;2022-08-24T16:40:33;8.80;;;2.10;;
3000;SDS011;1510;51.072;6.678;2022-08-24T16:43:24;8.07;;;2.03;;
3000;SDS011;1510;51.072;6.678;2022-08-24T16:46:05;7.77;;;2.30;;
3000;SDS011;1510;51.072;6.678;2022-08-24T16:48:52;7.13;;;2.10;;
3000;SDS011;1510;51.072;6.678;2022-08-24T16:54:40;8.27;;;2.50;;
3000;SDS011;1510;51.072;6.678;2022-08-24T16:57:10;5.50;;;2.50;;
3000;SDS011;1510;51.072;6.678;2022-08-24T16:59:40;5.20;;;1.90;;
3000;SDS011;1510;51.072;6.678;2022-08-24T17:02:16;7.13;;;2.17;;
3000;SDS011;1510;51.072;6.678;2022-08-24T17:04:49;5.10;;;1.83;;
3000;SDS011;1510;51.072;6.678;2022-08-24T17:07:24;5.07;;;2.00;;
3000;SDS011;1510;51.072;6.678;2022-08-24T17:26:49;5.60;;;2.10;;
3000;SDS011;1510;51.072;6.678;2022-08-24T17:33:44;5.80;;;1.80;;
3000;SDS011;1510;51.072;6.678;2022-08-24T17:36:10;6.77;;;2.53;;
3000;SDS011;1510;51.072;6.678;2022-08-24T17:38:48;5.60;;;2.20;;
3000;SDS011;1510;51.072;6.678;2022-08-24T17:41:17;5.70;;;2.33;;
3000;SDS011;1510;51.072;6.678;2022-08-24T17:43:45;6.63;;;2.00;;
3000;SDS011;1510;51.072;6.678;2022-08-24T17:46:12;8.90;;;2.40;;
3000;SDS011;1510;51.072;6.678;2022-08-24T17:48:42;5.10;;;2.00;;
3000;SDS011;1510;51.072;6.678;2022-08-24T17:51:10;8.60;;;4.20;;
3000;SDS011;1510;51.072;6.678;2022-08-24T17:56:24;8.17;;;1.97;;
3000;SDS011;1510;51.072;6.678;2022-08-24T17:58:53;5.10;;;2.23;;
3000;SDS011;1510;51.072;6.678;2022-08-24T18:01:38;7.80;;;2.33;;
3000;SDS011;1510;51.072;6.678;2022-08-24T18:04:04;6.50;;;2.27;;
3000;SDS011;1510;51.072;6.678;2022-08-24T18:06:31;5.70;;;2.10;;
3000;SDS011;1510;51.072;6.678;2022-08-24T18:08:59;8.13;;;2.40;;
3000;SDS011;1510;51.072;6.678;2022-08-24T18:11:29;7.07;;;2.10;;
3000;SDS011;1510;51.072;6.678;2022-08-24T18:13:57;9.40;;;2.53;;
3000;SDS011;1510;51.072;6.678;2022-08-24T18:16:25;6.23;;;2.50;;
3000;SDS011;1510;51.072;6.678;2022-08-24T18:18:52;7.83;;;2.10;;
3000;SDS011;1510;51.072;6.678;2022-08-24T18:21:19;8.70;;;2.33;;
3000;SDS011;1510;51.072;6.678;2022-08-24T18:23:47;8.13;;;2.53;;
3000;SDS011;1510;51.072;6.678;2022-08-24T18:26:15;6.70;;;2.30;;
3000;SDS011;1510;51.072;6.678;2022-08-24T18:28:45;7.43;;;2.60;;
3000;SDS011;1510;51.072;6.678;2022-08-24T18:31:13;8.80;;;2.53;;
3000;SDS011;1510;51.072;6.678;2022-08-24T18:33:40;7.17;;;2.83;;
3000;SDS011;1510;51.072;6.678;2022-08-24T18:36:09;8.10;;;2.40;;
3000;SDS011;1510;51.072;6.678;2022-08-24T18:38:36;9.43;;;2.67;;
3000;SDS011;1510;51.072;6.678;2022-08-24T18:41:04;7.67;;;2.60;;
3000;SDS011;1510;51.072;6.678;2022-08-24T18:43:34;8.97;;;3.33;;
3000;SDS011;1510;51.072;6.678;2022-08-24T18:46:02;7.40;;;3.00;;
3000;SDS011;1510;51.072;6.678;2022-08-24T18:48:31;8.03;;;3.17;;
3000;SDS011;1510;51.072;6.678;2022-08-24T18:50:58;8.33;;;2.93;;
3000;SDS011;1510;51.072;6.678;2022-08-24T18:53:26;8.53;;;2.80;;
3000;SDS011;1510;51.072;6.678;2022-08-24T18:55:53;8.73;;;3.40;;
3000;SDS011;1510;51.072;6.678;2022-08-24T18:58:20;6.83;;;3.40;;
3000;SDS011;1510;51.072;6.678;2022-08-24T19:00:47;6.17;;;3.40;;
3000;SDS011;1510;51.072;6.678;2022-08-24T19:03:16;7.30;;;3.10;;